sensor_id;sensor_type;location;lat;lon;timestamp;P1;durP1;ratioP1;P2;durP2;ratioP2
60665;SDS011;59128;44.642;21.188;2023-11-21T00:00:19;143.93;;;107.88;;
60665;SDS011;59128;44.642;21.188;2023-11-21T00:02:45;101.85;;;72.10;;
60665;SDS011;59128;44.642;21.188;2023-11-21T00:05:12;99.50;;;67.87;;
60665;SDS011;59128;44.642;21.188;2023-11-21T00:07:39;88.63;;;62.08;;
60665;SDS011;59128;44.642;21.188;2023-11-21T00:10:05;72.97;;;52.17;;
60665;SDS011;59128;44.642;21.188;2023-11-21T00:12:31;75.07;;;51.03;;
60665;SDS011;59128;44.642;21.188;2023-11-21T00:14:58;84.50;;;59.17;;
60665;SDS011;59128;44.642;21.188;2023-11-21T00:17:24;92.18;;;67.82;;
60665;SDS011;59128;44.642;21.188;2023-11-21T00:19:50;106.20;;;79.88;;
60665;SDS011;59128;44.642;21.188;2023-11-21T00:22:17;101.18;;;76.95;;
60665;SDS011;59128;44.642;21.188;2023-11-21T00:24:43;148.75;;;106.97;;
60665;SDS011;59128;44.642;21.188;2023-11-21T00:27:10;118.10;;;86.88;;
60665;SDS011;59128;44.642;21.188;2023-11-21T00:29:36;94.95;;;69.65;;
60665;SDS011;59128;44.642;21.188;2023-11-21T00:32:03;101.65;;;76.03;;
60665;SDS011;59128;44.642;21.188;2023-11-21T00:34:30;425.20;;;310.90;;
60665;SDS011;59128;44.642;21.188;2023-11-21T00:36:56;338.30;;;237.80;;
60665;SDS011;59128;44.642;21.188;2023-11-21T00:39:22;236.35;;;164.10;;
60665;SDS011;59128;44.642;21.188;2023-11-21T00:41:49;144.88;;;102.05;;
60665;SDS011;59128;44.642;21.188;2023-11-21T00:44:15;129.85;;;90.78;;
60665;SDS011;59128;44.642;21.188;2023-11-21T00:46:41;118.03;;;85.22;;
60665;SDS011;59128;44.642;21.188;2023-11-21T00:49:07;94.33;;;68.17;;
60665;SDS011;59128;44.642;21.188;2023-11-21T00:51:33;95.97;;;69.03;;
60665;SDS011;59128;44.642;21.188;2023-11-21T00:53:59;80.90;;;59.33;;
60665;SDS011;59128;44.642;21.188;2023-11-21T00:56:26;74.07;;;55.45;;
60665;SDS011;59128;44.642;21.188;2023-11-21T00:58:53;76.65;;;57.13;;
60665;SDS011;59128;44.642;21.188;2023-11-21T01:01:19;76.93;;;54.88;;
60665;SDS011;59128;44.642;21.188;2023-11-21T01:03:47;79.65;;;59.83;;
60665;SDS011;59128;44.642;21.188;2023-11-21T01:06:13;94.57;;;70.13;;
60665;SDS011;59128;44.642;21.188;2023-11-21T01:08:39;89.47;;;69.50;;
60665;SDS011;59128;44.642;21.188;2023-11-21T01:11:06;105.18;;;83.57;;
60665;SDS011;59128;44.642;21.188;2023-11-21T01:13:37;76.93;;;60.13;;
60665;SDS011;59128;44.642;21.188;2023-11-21T01:16:04;104.82;;;81.47;;
60665;SDS011;59128;44.642;21.188;2023-11-21T01:18:31;100.70;;;76.30;;
60665;SDS011;59128;44.642;21.188;2023-11-21T01:20:57;108.70;;;82.00;;
60665;SDS011;59128;44.642;21.188;2023-11-21T01:23:25;82.78;;;61.97;;
60665;SDS011;59128;44.642;21.188;2023-11-21T01:25:52;78.68;;;57.28;;
60665;SDS011;59128;44.642;21.188;2023-11-21T01:28:18;76.82;;;57.22;;
60665;SDS011;59128;44.642;21.188;2023-11-21T01:30:44;72.35;;;53.95;;
60665;SDS011;59128;44.642;21.188;2023-11-21T01:33:11;63.38;;;49.25;;
60665;SDS011;59128;44.642;21.188;2023-11-21T01:35:37;64.72;;;49.10;;
60665;SDS011;59128;44.642;21.188;2023-11-21T01:38:03;65.60;;;50.38;;
60665;SDS011;59128;44.642;21.188;2023-11-21T01:40:29;67.55;;;51.65;;
60665;SDS011;59128;44.642;21.188;2023-11-21T01:42:55;67.13;;;50.90;;
60665;SDS011;59128;44.642;21.188;2023-11-21T01:45:22;61.35;;;46.05;;
60665;SDS011;59128;44.642;21.188;2023-11-21T01:47:50;76.80;;;57.90;;
60665;SDS011;59128;44.642;21.188;2023-11-21T01:50:16;64.55;;;49.42;;
60665;SDS011;59128;44.642;21.188;2023-11-21T01:52:43;64.20;;;48.88;;
60665;SDS011;59128;44.642;21.188;2023-11-21T01:55:10;59.92;;;44.92;;
60665;SDS011;59128;44.642;21.188;2023-11-21T01:57:37;51.40;;;40.72;;
60665;SDS011;59128;44.642;21.188;2023-11-21T02:00:04;46.20;;;32.97;;
60665;SDS011;59128;44.642;21.188;2023-11-21T02:02:47;39.72;;;29.48;;
60665;SDS011;59128;44.642;21.188;2023-11-21T02:05:14;37.47;;;29.27;;
60665;SDS011;59128;44.642;21.188;2023-11-21T02:07:42;33.33;;;25.63;;
60665;SDS011;59128;44.642;21.188;2023-11-21T02:10:08;25.83;;;19.45;;
60665;SDS011;59128;44.642;21.188;2023-11-21T02:12:35;21.00;;;16.17;;
60665;SDS011;59128;44.642;21.188;2023-11-21T02:15:05;16.95;;;14.00;;
60665;SDS011;59128;44.642;21.188;2023-11-21T02:17:35;18.42;;;14.00;;
60665;SDS011;59128;44.642;21.188;2023-11-21T02:20:01;17.17;;;12.82;;
60665;SDS011;59128;44.642;21.188;2023-11-21T02:22:28;15.70;;;12.45;;
60665;SDS011;59128;44.642;21.188;2023-11-21T02:24:55;14.60;;;11.23;;
60665;SDS011;59128;44.642;21.188;2023-11-21T02:27:23;15.93;;;12.30;;
60665;SDS011;59128;44.642;21.188;2023-11-21T02:29:49;21.88;;;15.90;;
60665;SDS011;59128;44.642;21.188;2023-11-21T02:32:15;147.18;;;101.07;;
60665;SDS011;59128;44.642;21.188;2023-11-21T02:34:47;166.63;;;113.63;;
60665;SDS011;59128;44.642;21.188;2023-11-21T02:37:14;243.70;;;161.52;;
60665;SDS011;59128;44.642;21.188;2023-11-21T02:39:41;221.18;;;152.60;;
60665;SDS011;59128;44.642;21.188;2023-11-21T02:42:07;200.55;;;136.32;;
60665;SDS011;59128;44.642;21.188;2023-11-21T02:44:33;212.85;;;145.68;;
60665;SDS011;59128;44.642;21.188;2023-11-21T02:47:00;205.57;;;139.13;;
60665;SDS011;59128;44.642;21.188;2023-11-21T02:49:26;173.15;;;122.30;;
60665;SDS011;59128;44.642;21.188;2023-11-21T02:51:55;89.35;;;63.47;;
60665;SDS011;59128;44.642;21.188;2023-11-21T02:54:22;83.60;;;58.27;;
60665;SDS011;59128;44.642;21.188;2023-11-21T02:56:48;26.05;;;20.83;;
60665;SDS011;59128;44.642;21.188;2023-11-21T02:59:15;21.52;;;17.15;;
60665;SDS011;59128;44.642;21.188;2023-11-21T03:01:41;19.17;;;14.43;;
60665;SDS011;59128;44.642;21.188;2023-11-21T03:04:07;19.63;;;14.98;;
60665;SDS011;59128;44.642;21.188;2023-11-21T03:06:33;17.77;;;13.57;;
60665;SDS011;59128;44.642;21.188;2023-11-21T03:08:59;17.45;;;13.10;;
60665;SDS011;59128;44.642;21.188;2023-11-21T03:11:26;15.45;;;12.10;;
60665;SDS011;59128;44.642;21.188;2023-11-21T03:13:52;12.05;;;8.88;;
60665;SDS011;59128;44.642;21.188;2023-11-21T03:16:18;10.52;;;8.27;;
60665;SDS011;59128;44.642;21.188;2023-11-21T03:18:44;10.55;;;8.30;;
60665;SDS011;59128;44.642;21.188;2023-11-21T03:21:11;9.57;;;7.97;;
60665;SDS011;59128;44.642;21.188;2023-11-21T03:23:38;12.35;;;9.02;;
60665;SDS011;59128;44.642;21.188;2023-11-21T03:26:04;11.32;;;8.43;;
60665;SDS011;59128;44.642;21.188;2023-11-21T03:28:33;10.60;;;8.80;;
60665;SDS011;59128;44.642;21.188;2023-11-21T03:30:59;11.00;;;8.00;;
60665;SDS011;59128;44.642;21.188;2023-11-21T03:33:25;11.20;;;8.00;;
60665;SDS011;59128;44.642;21.188;2023-11-21T03:35:51;10.60;;;8.38;;
60665;SDS011;59128;44.642;21.188;2023-11-21T03:38:18;11.55;;;8.50;;
60665;SDS011;59128;44.642;21.188;2023-11-21T03:40:44;12.57;;;8.70;;
60665;SDS011;59128;44.642;21.188;2023-11-21T03:43:10;11.65;;;9.07;;
60665;SDS011;59128;44.642;21.188;2023-11-21T03:45:37;15.02;;;10.55;;
60665;SDS011;59128;44.642;21.188;2023-11-21T03:48:03;19.50;;;13.50;;
60665;SDS011;59128;44.642;21.188;2023-11-21T03:50:29;12.52;;;9.60;;
60665;SDS011;59128;44.642;21.188;2023-11-21T03:52:55;13.25;;;9.98;;
60665;SDS011;59128;44.642;21.188;2023-11-21T03:55:21;10.73;;;8.50;;
60665;SDS011;59128;44.642;21.188;2023-11-21T03:57:49;10.65;;;8.57;;
60665;SDS011;59128;44.642;21.188;2023-11-21T04:00:16;14.37;;;10.10;;
60665;SDS011;59128;44.642;21.188;2023-11-21T04:02:42;17.90;;;11.27;;
60665;SDS011;59128;44.642;21.188;2023-11-21T04:05:08;17.40;;;11.70;;
60665;SDS011;59128;44.642;21.188;2023-11-21T04:07:35;22.25;;;14.35;;
60665;SDS011;59128;44.642;21.188;2023-11-21T04:10:03;24.30;;;16.75;;
60665;SDS011;59128;44.642;21.188;2023-11-21T04:12:32;18.50;;;13.30;;
60665;SDS011;59128;44.642;21.188;2023-11-21T04:14:58;13.15;;;10.15;;
60665;SDS011;59128;44.642;21.188;2023-11-21T04:17:24;13.90;;;10.43;;
60665;SDS011;59128;44.642;21.188;2023-11-21T04:19:50;13.95;;;10.73;;
60665;SDS011;59128;44.642;21.188;2023-11-21T04:22:16;12.97;;;10.10;;
60665;SDS011;59128;44.642;21.188;2023-11-21T04:24:42;13.82;;;10.57;;
60665;SDS011;59128;44.642;21.188;2023-11-21T04:27:08;17.33;;;11.82;;
60665;SDS011;59128;44.642;21.188;2023-11-21T04:29:34;16.13;;;11.67;;
60665;SDS011;59128;44.642;21.188;2023-11-21T04:32:01;15.10;;;10.55;;
60665;SDS011;59128;44.642;21.188;2023-11-21T04:34:27;16.23;;;11.90;;
60665;SDS011;59128;44.642;21.188;2023-11-21T04:36:56;17.20;;;12.57;;
60665;SDS011;59128;44.642;21.188;2023-11-21T04:39:22;15.45;;;11.63;;
60665;SDS011;59128;44.642;21.188;2023-11-21T04:41:48;15.98;;;12.55;;
60665;SDS011;59128;44.642;21.188;2023-11-21T04:44:14;14.65;;;11.80;;
60665;SDS011;59128;44.642;21.188;2023-11-21T04:46:42;13.63;;;11.10;;
60665;SDS011;59128;44.642;21.188;2023-11-21T04:49:08;14.25;;;11.40;;
60665;SDS011;59128;44.642;21.188;2023-11-21T04:51:35;15.77;;;11.52;;
60665;SDS011;59128;44.642;21.188;2023-11-21T04:54:02;16.13;;;11.55;;
60665;SDS011;59128;44.642;21.188;2023-11-21T04:56:28;16.02;;;12.13;;
60665;SDS011;59128;44.642;21.188;2023-11-21T04:58:54;16.58;;;12.25;;
60665;SDS011;59128;44.642;21.188;2023-11-21T05:01:20;16.45;;;11.70;;
60665;SDS011;59128;44.642;21.188;2023-11-21T05:03:46;17.63;;;12.65;;
60665;SDS011;59128;44.642;21.188;2023-11-21T05:06:13;16.58;;;12.48;;
60665;SDS011;59128;44.642;21.188;2023-11-21T05:08:39;17.48;;;13.02;;
60665;SDS011;59128;44.642;21.188;2023-11-21T05:11:05;18.23;;;13.27;;
60665;SDS011;59128;44.642;21.188;2023-11-21T05:13:35;17.73;;;13.75;;
60665;SDS011;59128;44.642;21.188;2023-11-21T05:16:02;21.55;;;15.77;;
60665;SDS011;59128;44.642;21.188;2023-11-21T05:18:31;14.25;;;11.52;;
60665;SDS011;59128;44.642;21.188;2023-11-21T05:20:57;14.32;;;11.10;;
60665;SDS011;59128;44.642;21.188;2023-11-21T05:23:23;15.57;;;12.52;;
60665;SDS011;59128;44.642;21.188;2023-11-21T05:25:49;17.27;;;13.20;;
60665;SDS011;59128;44.642;21.188;2023-11-21T05:28:16;17.45;;;13.38;;
60665;SDS011;59128;44.642;21.188;2023-11-21T05:30:42;17.05;;;12.70;;
60665;SDS011;59128;44.642;21.188;2023-11-21T05:33:09;16.75;;;12.90;;
60665;SDS011;59128;44.642;21.188;2023-11-21T05:35:35;19.13;;;14.38;;
60665;SDS011;59128;44.642;21.188;2023-11-21T05:38:01;16.13;;;12.13;;
60665;SDS011;59128;44.642;21.188;2023-11-21T05:40:27;19.02;;;13.80;;
60665;SDS011;59128;44.642;21.188;2023-11-21T05:42:55;18.25;;;12.90;;
60665;SDS011;59128;44.642;21.188;2023-11-21T05:45:21;20.45;;;13.95;;
60665;SDS011;59128;44.642;21.188;2023-11-21T05:47:47;13.95;;;10.60;;
60665;SDS011;59128;44.642;21.188;2023-11-21T05:50:14;12.38;;;9.23;;
60665;SDS011;59128;44.642;21.188;2023-11-21T05:52:40;13.00;;;9.48;;
60665;SDS011;59128;44.642;21.188;2023-11-21T05:55:07;12.53;;;8.83;;
60665;SDS011;59128;44.642;21.188;2023-11-21T05:57:34;16.07;;;9.27;;
60665;SDS011;59128;44.642;21.188;2023-11-21T06:00:09;15.82;;;8.88;;
60665;SDS011;59128;44.642;21.188;2023-11-21T06:02:37;11.20;;;7.82;;
60665;SDS011;59128;44.642;21.188;2023-11-21T06:05:03;10.13;;;8.27;;
60665;SDS011;59128;44.642;21.188;2023-11-21T06:07:30;15.07;;;11.10;;
60665;SDS011;59128;44.642;21.188;2023-11-21T06:09:56;15.60;;;11.40;;
60665;SDS011;59128;44.642;21.188;2023-11-21T06:12:22;28.97;;;20.57;;
60665;SDS011;59128;44.642;21.188;2023-11-21T06:14:48;19.50;;;14.20;;
60665;SDS011;59128;44.642;21.188;2023-11-21T06:17:14;67.68;;;42.65;;
60665;SDS011;59128;44.642;21.188;2023-11-21T06:19:40;68.78;;;46.20;;
60665;SDS011;59128;44.642;21.188;2023-11-21T06:22:06;51.60;;;37.13;;
60665;SDS011;59128;44.642;21.188;2023-11-21T06:24:33;73.07;;;50.53;;
60665;SDS011;59128;44.642;21.188;2023-11-21T06:26:59;69.28;;;54.50;;
60665;SDS011;59128;44.642;21.188;2023-11-21T06:29:25;27.85;;;22.80;;
60665;SDS011;59128;44.642;21.188;2023-11-21T06:31:51;24.55;;;18.23;;
60665;SDS011;59128;44.642;21.188;2023-11-21T06:34:20;51.38;;;36.40;;
60665;SDS011;59128;44.642;21.188;2023-11-21T06:36:46;40.55;;;29.35;;
60665;SDS011;59128;44.642;21.188;2023-11-21T06:39:12;23.65;;;17.80;;
60665;SDS011;59128;44.642;21.188;2023-11-21T06:41:40;26.00;;;19.35;;
60665;SDS011;59128;44.642;21.188;2023-11-21T06:44:06;24.88;;;18.50;;
60665;SDS011;59128;44.642;21.188;2023-11-21T06:46:33;15.13;;;11.63;;
60665;SDS011;59128;44.642;21.188;2023-11-21T06:48:59;19.17;;;15.88;;
60665;SDS011;59128;44.642;21.188;2023-11-21T06:51:25;27.55;;;22.02;;
60665;SDS011;59128;44.642;21.188;2023-11-21T06:53:51;21.83;;;16.60;;
60665;SDS011;59128;44.642;21.188;2023-11-21T06:56:17;17.90;;;12.27;;
60665;SDS011;59128;44.642;21.188;2023-11-21T06:58:44;12.87;;;9.03;;
60665;SDS011;59128;44.642;21.188;2023-11-21T07:01:11;12.75;;;9.40;;
60665;SDS011;59128;44.642;21.188;2023-11-21T07:03:37;10.38;;;8.43;;
60665;SDS011;59128;44.642;21.188;2023-11-21T07:06:03;25.23;;;17.42;;
60665;SDS011;59128;44.642;21.188;2023-11-21T07:08:29;41.90;;;27.65;;
60665;SDS011;59128;44.642;21.188;2023-11-21T07:10:55;22.20;;;15.93;;
60665;SDS011;59128;44.642;21.188;2023-11-21T07:13:21;14.15;;;10.10;;
60665;SDS011;59128;44.642;21.188;2023-11-21T07:15:48;12.98;;;9.07;;
60665;SDS011;59128;44.642;21.188;2023-11-21T07:18:14;11.32;;;9.02;;
60665;SDS011;59128;44.642;21.188;2023-11-21T07:20:40;10.32;;;8.32;;
60665;SDS011;59128;44.642;21.188;2023-11-21T07:23:06;18.30;;;13.98;;
60665;SDS011;59128;44.642;21.188;2023-11-21T07:25:32;19.48;;;13.95;;
60665;SDS011;59128;44.642;21.188;2023-11-21T07:27:59;17.40;;;12.23;;
60665;SDS011;59128;44.642;21.188;2023-11-21T07:30:25;21.23;;;13.68;;
60665;SDS011;59128;44.642;21.188;2023-11-21T07:32:52;25.23;;;16.27;;
60665;SDS011;59128;44.642;21.188;2023-11-21T07:35:18;24.90;;;16.88;;
60665;SDS011;59128;44.642;21.188;2023-11-21T07:37:44;20.63;;;15.10;;
60665;SDS011;59128;44.642;21.188;2023-11-21T07:40:11;16.42;;;11.50;;
60665;SDS011;59128;44.642;21.188;2023-11-21T07:42:38;16.73;;;12.00;;
60665;SDS011;59128;44.642;21.188;2023-11-21T07:45:05;11.38;;;8.75;;
60665;SDS011;59128;44.642;21.188;2023-11-21T07:47:32;10.80;;;8.77;;
60665;SDS011;59128;44.642;21.188;2023-11-21T07:49:59;16.05;;;12.30;;
60665;SDS011;59128;44.642;21.188;2023-11-21T07:52:25;20.88;;;14.02;;
60665;SDS011;59128;44.642;21.188;2023-11-21T07:54:51;17.58;;;13.32;;
60665;SDS011;59128;44.642;21.188;2023-11-21T07:57:17;16.75;;;12.23;;
60665;SDS011;59128;44.642;21.188;2023-11-21T07:59:43;15.27;;;11.35;;
60665;SDS011;59128;44.642;21.188;2023-11-21T08:02:09;15.23;;;11.27;;
60665;SDS011;59128;44.642;21.188;2023-11-21T08:04:36;10.40;;;7.53;;
60665;SDS011;59128;44.642;21.188;2023-11-21T08:07:02;15.27;;;11.30;;
60665;SDS011;59128;44.642;21.188;2023-11-21T08:09:28;17.05;;;12.23;;
60665;SDS011;59128;44.642;21.188;2023-11-21T08:11:55;15.07;;;11.32;;
60665;SDS011;59128;44.642;21.188;2023-11-21T08:14:21;14.80;;;10.07;;
60665;SDS011;59128;44.642;21.188;2023-11-21T08:16:50;15.55;;;11.13;;
60665;SDS011;59128;44.642;21.188;2023-11-21T08:19:17;11.25;;;9.02;;
60665;SDS011;59128;44.642;21.188;2023-11-21T08:21:43;10.88;;;8.30;;
60665;SDS011;59128;44.642;21.188;2023-11-21T08:24:10;14.95;;;11.18;;
60665;SDS011;59128;44.642;21.188;2023-11-21T08:26:37;19.23;;;12.70;;
60665;SDS011;59128;44.642;21.188;2023-11-21T08:29:03;13.50;;;9.93;;
60665;SDS011;59128;44.642;21.188;2023-11-21T08:31:31;15.73;;;11.38;;
60665;SDS011;59128;44.642;21.188;2023-11-21T08:33:58;22.10;;;15.40;;
60665;SDS011;59128;44.642;21.188;2023-11-21T08:36:27;13.55;;;10.20;;
60665;SDS011;59128;44.642;21.188;2023-11-21T08:38:53;24.27;;;16.95;;
60665;SDS011;59128;44.642;21.188;2023-11-21T08:41:20;63.05;;;37.92;;
60665;SDS011;59128;44.642;21.188;2023-11-21T08:43:52;59.28;;;40.72;;
60665;SDS011;59128;44.642;21.188;2023-11-21T08:46:20;20.92;;;15.65;;
60665;SDS011;59128;44.642;21.188;2023-11-21T08:48:46;16.48;;;12.73;;
60665;SDS011;59128;44.642;21.188;2023-11-21T08:51:12;21.57;;;14.67;;
60665;SDS011;59128;44.642;21.188;2023-11-21T08:53:39;13.85;;;10.38;;
60665;SDS011;59128;44.642;21.188;2023-11-21T08:56:06;14.20;;;10.55;;
60665;SDS011;59128;44.642;21.188;2023-11-21T08:58:41;38.90;;;27.17;;
60665;SDS011;59128;44.642;21.188;2023-11-21T09:01:07;18.92;;;14.45;;
60665;SDS011;59128;44.642;21.188;2023-11-21T09:03:33;37.88;;;30.73;;
60665;SDS011;59128;44.642;21.188;2023-11-21T09:06:00;20.70;;;14.27;;
60665;SDS011;59128;44.642;21.188;2023-11-21T09:08:26;16.98;;;12.63;;
60665;SDS011;59128;44.642;21.188;2023-11-21T09:10:54;17.27;;;12.52;;
60665;SDS011;59128;44.642;21.188;2023-11-21T09:13:20;19.08;;;14.38;;
60665;SDS011;59128;44.642;21.188;2023-11-21T09:15:46;15.55;;;10.32;;
60665;SDS011;59128;44.642;21.188;2023-11-21T09:18:14;15.48;;;11.65;;
60665;SDS011;59128;44.642;21.188;2023-11-21T09:20:41;14.60;;;10.95;;
60665;SDS011;59128;44.642;21.188;2023-11-21T09:23:13;15.18;;;11.75;;
60665;SDS011;59128;44.642;21.188;2023-11-21T09:25:39;17.67;;;11.90;;
60665;SDS011;59128;44.642;21.188;2023-11-21T09:28:05;13.20;;;9.82;;
60665;SDS011;59128;44.642;21.188;2023-11-21T09:30:33;12.48;;;8.93;;
60665;SDS011;59128;44.642;21.188;2023-11-21T09:33:00;18.83;;;12.88;;
60665;SDS011;59128;44.642;21.188;2023-11-21T09:35:26;20.92;;;15.32;;
60665;SDS011;59128;44.642;21.188;2023-11-21T09:37:53;22.20;;;14.15;;
60665;SDS011;59128;44.642;21.188;2023-11-21T09:40:22;21.38;;;15.77;;
60665;SDS011;59128;44.642;21.188;2023-11-21T09:42:54;21.23;;;15.02;;
60665;SDS011;59128;44.642;21.188;2023-11-21T09:45:25;21.60;;;16.43;;
60665;SDS011;59128;44.642;21.188;2023-11-21T09:47:53;17.60;;;12.35;;
60665;SDS011;59128;44.642;21.188;2023-11-21T09:50:23;18.35;;;13.10;;
60665;SDS011;59128;44.642;21.188;2023-11-21T09:53:34;11.68;;;8.82;;
60665;SDS011;59128;44.642;21.188;2023-11-21T09:55:42;15.25;;;11.60;;
60665;SDS011;59128;44.642;21.188;2023-11-21T09:58:09;9.85;;;6.90;;
60665;SDS011;59128;44.642;21.188;2023-11-21T10:00:39;13.93;;;9.95;;
60665;SDS011;59128;44.642;21.188;2023-11-21T10:03:06;17.57;;;11.90;;
60665;SDS011;59128;44.642;21.188;2023-11-21T10:05:32;20.10;;;12.82;;
60665;SDS011;59128;44.642;21.188;2023-11-21T10:07:59;16.67;;;10.75;;
60665;SDS011;59128;44.642;21.188;2023-11-21T10:10:26;21.17;;;14.38;;
60665;SDS011;59128;44.642;21.188;2023-11-21T10:12:57;11.48;;;7.53;;
60665;SDS011;59128;44.642;21.188;2023-11-21T10:15:28;17.33;;;12.30;;
60665;SDS011;59128;44.642;21.188;2023-11-21T10:17:55;19.10;;;13.80;;
60665;SDS011;59128;44.642;21.188;2023-11-21T10:20:22;9.20;;;6.72;;
60665;SDS011;59128;44.642;21.188;2023-11-21T10:22:49;8.57;;;6.60;;
60665;SDS011;59128;44.642;21.188;2023-11-21T10:25:15;7.60;;;5.40;;
60665;SDS011;59128;44.642;21.188;2023-11-21T10:27:46;8.73;;;5.63;;
60665;SDS011;59128;44.642;21.188;2023-11-21T10:30:12;13.70;;;11.05;;
60665;SDS011;59128;44.642;21.188;2023-11-21T10:32:39;14.93;;;9.15;;
60665;SDS011;59128;44.642;21.188;2023-11-21T10:35:09;20.52;;;14.13;;
60665;SDS011;59128;44.642;21.188;2023-11-21T10:37:36;17.75;;;12.95;;
60665;SDS011;59128;44.642;21.188;2023-11-21T10:40:05;23.42;;;16.83;;
60665;SDS011;59128;44.642;21.188;2023-11-21T10:42:31;23.90;;;17.00;;
60665;SDS011;59128;44.642;21.188;2023-11-21T10:44:58;24.27;;;17.05;;
60665;SDS011;59128;44.642;21.188;2023-11-21T10:47:24;25.57;;;17.30;;
60665;SDS011;59128;44.642;21.188;2023-11-21T10:49:51;25.50;;;17.67;;
60665;SDS011;59128;44.642;21.188;2023-11-21T10:52:20;26.10;;;17.75;;
60665;SDS011;59128;44.642;21.188;2023-11-21T10:54:47;30.70;;;21.60;;
60665;SDS011;59128;44.642;21.188;2023-11-21T10:57:17;17.52;;;12.32;;
60665;SDS011;59128;44.642;21.188;2023-11-21T10:59:46;25.80;;;17.25;;
60665;SDS011;59128;44.642;21.188;2023-11-21T11:02:23;76.00;;;50.17;;
60665;SDS011;59128;44.642;21.188;2023-11-21T11:04:56;90.68;;;45.42;;
60665;SDS011;59128;44.642;21.188;2023-11-21T11:07:27;19.83;;;12.55;;
60665;SDS011;59128;44.642;21.188;2023-11-21T11:09:55;32.85;;;19.48;;
60665;SDS011;59128;44.642;21.188;2023-11-21T11:12:21;68.57;;;38.42;;
60665;SDS011;59128;44.642;21.188;2023-11-21T11:14:48;52.38;;;30.05;;
60665;SDS011;59128;44.642;21.188;2023-11-21T11:17:15;83.38;;;46.55;;
60665;SDS011;59128;44.642;21.188;2023-11-21T11:19:42;95.20;;;55.42;;
60665;SDS011;59128;44.642;21.188;2023-11-21T11:32:25;25.65;;;16.88;;
60665;SDS011;59128;44.642;21.188;2023-11-21T11:35:15;14.82;;;10.45;;
60665;SDS011;59128;44.642;21.188;2023-11-21T11:37:42;32.65;;;20.45;;
60665;SDS011;59128;44.642;21.188;2023-11-21T11:40:10;28.17;;;18.48;;
60665;SDS011;59128;44.642;21.188;2023-11-21T11:42:36;16.90;;;12.02;;
60665;SDS011;59128;44.642;21.188;2023-11-21T11:45:17;17.95;;;12.80;;
60665;SDS011;59128;44.642;21.188;2023-11-21T11:47:44;18.10;;;13.95;;
60665;SDS011;59128;44.642;21.188;2023-11-21T11:50:13;20.80;;;15.38;;
60665;SDS011;59128;44.642;21.188;2023-11-21T11:52:42;23.60;;;16.90;;
60665;SDS011;59128;44.642;21.188;2023-11-21T11:55:12;26.27;;;18.67;;
60665;SDS011;59128;44.642;21.188;2023-11-21T11:57:42;25.98;;;18.98;;
60665;SDS011;59128;44.642;21.188;2023-11-21T12:00:15;20.77;;;15.50;;
60665;SDS011;59128;44.642;21.188;2023-11-21T12:02:47;21.10;;;14.63;;
60665;SDS011;59128;44.642;21.188;2023-11-21T12:05:14;42.83;;;32.28;;
60665;SDS011;59128;44.642;21.188;2023-11-21T12:07:50;74.47;;;54.78;;
60665;SDS011;59128;44.642;21.188;2023-11-21T12:10:21;73.50;;;52.80;;
60665;SDS011;59128;44.642;21.188;2023-11-21T12:12:50;13.37;;;9.90;;
60665;SDS011;59128;44.642;21.188;2023-11-21T12:15:20;32.58;;;22.10;;
60665;SDS011;59128;44.642;21.188;2023-11-21T12:17:47;44.70;;;32.67;;
60665;SDS011;59128;44.642;21.188;2023-11-21T12:20:14;46.73;;;33.10;;
60665;SDS011;59128;44.642;21.188;2023-11-21T12:22:52;38.92;;;27.35;;
60665;SDS011;59128;44.642;21.188;2023-11-21T12:25:19;20.27;;;15.25;;
60665;SDS011;59128;44.642;21.188;2023-11-21T12:27:45;25.75;;;18.50;;
60665;SDS011;59128;44.642;21.188;2023-11-21T12:30:14;22.40;;;14.30;;
60665;SDS011;59128;44.642;21.188;2023-11-21T12:32:41;41.53;;;27.80;;
60665;SDS011;59128;44.642;21.188;2023-11-21T12:35:10;38.83;;;25.13;;
60665;SDS011;59128;44.642;21.188;2023-11-21T12:37:38;27.23;;;17.98;;
60665;SDS011;59128;44.642;21.188;2023-11-21T12:40:05;45.97;;;29.60;;
60665;SDS011;59128;44.642;21.188;2023-11-21T12:42:32;39.53;;;25.83;;
60665;SDS011;59128;44.642;21.188;2023-11-21T12:45:08;39.65;;;24.75;;
60665;SDS011;59128;44.642;21.188;2023-11-21T12:47:43;43.13;;;27.25;;
60665;SDS011;59128;44.642;21.188;2023-11-21T12:50:14;64.57;;;39.63;;
60665;SDS011;59128;44.642;21.188;2023-11-21T12:52:41;49.77;;;31.27;;
60665;SDS011;59128;44.642;21.188;2023-11-21T12:55:12;38.40;;;23.90;;
60665;SDS011;59128;44.642;21.188;2023-11-21T12:58:01;44.55;;;26.83;;
60665;SDS011;59128;44.642;21.188;2023-11-21T13:00:34;35.70;;;23.00;;
60665;SDS011;59128;44.642;21.188;2023-11-21T13:03:02;46.38;;;28.38;;
60665;SDS011;59128;44.642;21.188;2023-11-21T13:05:29;65.13;;;39.00;;
60665;SDS011;59128;44.642;21.188;2023-11-21T13:08:00;66.38;;;40.63;;
60665;SDS011;59128;44.642;21.188;2023-11-21T13:10:28;73.03;;;46.70;;
60665;SDS011;59128;44.642;21.188;2023-11-21T13:12:59;70.78;;;45.63;;
60665;SDS011;59128;44.642;21.188;2023-11-21T13:15:28;79.93;;;52.72;;
60665;SDS011;59128;44.642;21.188;2023-11-21T13:17:56;83.55;;;54.40;;
60665;SDS011;59128;44.642;21.188;2023-11-21T13:20:23;80.15;;;55.05;;
60665;SDS011;59128;44.642;21.188;2023-11-21T13:22:50;57.00;;;40.00;;
60665;SDS011;59128;44.642;21.188;2023-11-21T13:25:23;86.00;;;58.15;;
60665;SDS011;59128;44.642;21.188;2023-11-21T13:27:52;37.08;;;25.52;;
60665;SDS011;59128;44.642;21.188;2023-11-21T13:30:18;25.77;;;18.55;;
60665;SDS011;59128;44.642;21.188;2023-11-21T13:33:00;21.65;;;14.98;;
60665;SDS011;59128;44.642;21.188;2023-11-21T13:35:30;15.43;;;11.57;;
60665;SDS011;59128;44.642;21.188;2023-11-21T13:38:06;17.70;;;12.65;;
60665;SDS011;59128;44.642;21.188;2023-11-21T13:40:34;18.75;;;14.13;;
60665;SDS011;59128;44.642;21.188;2023-11-21T13:43:08;25.48;;;19.40;;
60665;SDS011;59128;44.642;21.188;2023-11-21T13:45:38;39.75;;;29.48;;
60665;SDS011;59128;44.642;21.188;2023-11-21T13:48:05;61.88;;;42.80;;
60665;SDS011;59128;44.642;21.188;2023-11-21T13:50:39;89.03;;;61.17;;
60665;SDS011;59128;44.642;21.188;2023-11-21T13:53:11;34.30;;;24.45;;
60665;SDS011;59128;44.642;21.188;2023-11-21T13:55:48;27.40;;;19.87;;
60665;SDS011;59128;44.642;21.188;2023-11-21T13:58:14;28.38;;;20.90;;
60665;SDS011;59128;44.642;21.188;2023-11-21T14:00:47;78.18;;;53.25;;
60665;SDS011;59128;44.642;21.188;2023-11-21T14:03:20;94.22;;;66.85;;
60665;SDS011;59128;44.642;21.188;2023-11-21T14:05:47;53.65;;;39.22;;
60665;SDS011;59128;44.642;21.188;2023-11-21T14:08:19;53.15;;;36.22;;
60665;SDS011;59128;44.642;21.188;2023-11-21T14:10:49;52.20;;;38.50;;
60665;SDS011;59128;44.642;21.188;2023-11-21T14:13:18;39.75;;;28.73;;
60665;SDS011;59128;44.642;21.188;2023-11-21T14:15:46;34.80;;;26.13;;
60665;SDS011;59128;44.642;21.188;2023-11-21T14:18:16;36.28;;;26.58;;
60665;SDS011;59128;44.642;21.188;2023-11-21T14:20:42;37.45;;;24.75;;